Time;durP1;ratioP1;P1;durP2;ratioP2;P2;SDS_P1;SDS_P2;PMS_P1;PMS_P2;Temp;Humidity;BMP_temperature;BMP_pressure;BME280_temperature;BME280_humidity;BME280_pressure;Samples;Min_cycle;Max_cycle;Signal;HPM_P1;HPM_P2
2023/10/08 00:00:39;;;;;;;2.40;2.20;;;;;;;22.73;60.36;98155.50;4974720;28;20208;-26
2023/10/08 00:02:46;;;;;;;2.07;1.90;;;;;;;22.74;60.36;98159.81;4976485;28;20247;-26
2023/10/08 00:05:16;;;;;;;2.10;1.90;;;;;;;22.74;60.37;98164.97;4976419;28;20315;-27
2023/10/08 00:07:43;;;;;;;2.30;2.10;;;;;;;22.73;60.50;98158.06;4975453;28;20208;-26
2023/10/08 00:10:09;;;;;;;1.90;1.80;;;;;;;22.73;60.43;98161.50;4978294;28;20196;-26
2023/10/08 00:12:36;;;;;;;2.43;2.23;;;;;;;22.74;60.29;98157.28;4972571;28;20667;-26
2023/10/08 00:15:07;;;;;;;2.60;2.40;;;;;;;22.75;60.40;98164.13;4974502;28;20238;-28
2023/10/08 00:17:33;;;;;;;3.27;2.17;;;;;;;22.74;60.35;98154.72;4972901;28;20203;-28
2023/10/08 00:20:00;;;;;;;2.27;2.07;;;;;;;22.74;60.45;98158.13;4974161;28;20287;-26
2023/10/08 00:22:28;;;;;;;2.20;2.00;;;;;;;22.75;60.43;98161.56;4978451;28;20230;-26
2023/10/08 00:24:58;;;;;;;2.43;2.23;;;;;;;22.76;60.43;98165.84;4973895;28;20672;-26
2023/10/08 00:27:24;;;;;;;2.00;1.80;;;;;;;22.75;60.40;98151.31;4973726;28;20896;-26
2023/10/08 00:29:51;;;;;;;2.50;1.97;;;;;;;22.75;60.42;98147.06;4974500;28;20359;-26
2023/10/08 00:32:17;;;;;;;1.87;1.70;;;;;;;22.74;60.42;98136.78;4979730;28;20311;-26
2023/10/08 00:34:44;;;;;;;2.20;2.00;;;;;;;22.74;60.40;98139.31;4981009;28;20547;-29
2023/10/08 00:37:14;;;;;;;2.40;2.20;;;;;;;22.74;60.47;98119.69;4970708;28;20671;-26
2023/10/08 00:39:41;;;;;;;3.53;2.10;;;;;;;22.74;60.35;98126.50;4972962;28;20222;-27
2023/10/08 00:42:08;;;;;;;2.43;2.00;;;;;;;22.74;60.38;98127.38;4973367;28;20283;-34
2023/10/08 00:44:51;;;;;;;2.60;2.10;;;;;;;22.70;60.39;98114.41;4973210;28;20608;-26
2023/10/08 00:47:20;;;;;;;2.40;2.20;;;;;;;22.73;60.27;98117.06;4975661;28;20207;-30
2023/10/08 00:49:54;;;;;;;2.13;1.93;;;;;;;22.74;60.46;98118.81;4969697;28;20247;-30
2023/10/08 00:52:29;;;;;;;2.33;2.10;;;;;;;22.61;60.37;98096.16;4954677;28;20257;-31
2023/10/08 00:57:26;;;;;;;2.10;1.90;;;;;;;22.74;60.56;98116.28;4973443;28;20204;-26
2023/10/08 00:59:53;;;;;;;2.27;2.07;;;;;;;22.73;60.52;98110.25;4972893;28;20211;-31
2023/10/08 01:02:24;;;;;;;2.20;2.00;;;;;;;22.72;60.56;98095.72;4971596;28;20270;-28
2023/10/08 01:04:51;;;;;;;2.23;2.03;;;;;;;22.72;60.57;98105.97;4974510;28;20231;-29
2023/10/08 01:07:18;;;;;;;2.20;2.00;;;;;;;22.75;60.55;98112.88;4978974;28;20203;-27
2023/10/08 01:09:50;;;;;;;1.73;1.63;;;;;;;22.74;60.48;98108.59;4974460;28;20204;-26
2023/10/08 01:18:00;;;;;;;2.20;2.00;;;;;;;22.74;60.64;98098.31;4973687;28;20199;-30
2023/10/08 01:20:37;;;;;;;2.20;2.00;;;;;;;22.72;60.55;98100.84;4978121;28;20293;-26
2023/10/08 01:23:16;;;;;;;2.17;1.90;;;;;;;22.73;60.60;98094.88;4973425;28;20410;-26
2023/10/08 01:25:43;;;;;;;2.20;2.00;;;;;;;22.72;60.50;98098.28;4967841;28;20754;-26
2023/10/08 01:28:18;;;;;;;2.20;2.00;;;;;;;22.73;60.53;98106.81;4976531;28;20207;-26
2023/10/08 01:30:46;;;;;;;2.27;2.07;;;;;;;22.73;60.59;98104.25;4977991;28;20314;-26
2023/10/08 01:33:17;;;;;;;2.43;2.23;;;;;;;22.74;60.64;98099.19;4971979;28;20204;-26
2023/10/08 01:35:50;;;;;;;2.33;2.13;;;;;;;22.73;60.54;98102.56;4966299;28;20219;-26
2023/10/08 01:38:23;;;;;;;2.10;1.90;;;;;;;22.72;60.57;98099.97;4973772;28;20207;-29
2023/10/08 01:40:53;;;;;;;2.10;1.90;;;;;;;22.73;60.56;98102.56;4975828;28;20628;-26
2023/10/08 01:43:20;;;;;;;2.50;2.30;;;;;;;22.73;60.55;98104.25;4972655;28;20211;-26
2023/10/08 01:45:52;;;;;;;2.20;2.00;;;;;;;22.74;60.46;98108.59;4972795;28;20686;-27
2023/10/08 01:48:20;;;;;;;2.27;2.07;;;;;;;22.74;60.64;98103.44;4973634;28;20208;-26
2023/10/08 01:50:47;;;;;;;1.97;1.83;;;;;;;22.74;60.63;98108.59;4972369;28;20223;-28
2023/10/08 01:53:16;;;;;;;2.00;1.90;;;;;;;22.74;60.59;98108.59;4975923;28;20211;-27
2023/10/08 01:55:48;;;;;;;2.07;1.90;;;;;;;22.73;60.98;98099.13;4974641;28;20231;-26
2023/10/08 01:58:16;;;;;;;2.00;1.80;;;;;;;22.60;60.60;98082.50;4971992;28;20207;-29
2023/10/08 02:00:45;;;;;;;1.80;1.60;;;;;;;22.73;60.64;98109.38;4969395;28;20203;-29
2023/10/08 02:03:15;;;;;;;2.00;1.87;;;;;;;22.73;60.53;98114.50;4973626;28;20218;-33
2023/10/08 02:05:43;;;;;;;2.10;1.90;;;;;;;22.71;60.63;98111.03;4974032;28;20227;-28
2023/10/08 02:08:10;;;;;;;1.87;1.77;;;;;;;22.71;60.57;98108.47;4977671;28;20229;-26
2023/10/08 02:10:38;;;;;;;2.23;2.03;;;;;;;22.73;60.69;98117.06;4968517;28;20613;-26
2023/10/08 02:13:05;;;;;;;2.10;1.90;;;;;;;22.73;60.68;98120.50;4972677;28;20204;-26
2023/10/08 02:15:32;;;;;;;2.20;2.00;;;;;;;22.74;60.59;98131.63;4977850;28;20780;-27
2023/10/08 02:17:59;;;;;;;4.17;2.03;;;;;;;22.73;60.64;98128.19;4976983;28;20207;-27
2023/10/08 02:20:27;;;;;;;1.80;1.70;;;;;;;22.73;60.79;98120.50;4976273;28;20195;-26
2023/10/08 02:22:54;;;;;;;1.97;1.83;;;;;;;22.74;60.75;98129.94;4975928;28;20285;-28
2023/10/08 02:25:20;;;;;;;1.80;1.70;;;;;;;22.74;60.68;98123.94;4976038;28;20257;-29
2023/10/08 02:27:48;;;;;;;2.27;2.07;;;;;;;22.73;60.76;98120.50;4978213;28;20246;-27
2023/10/08 02:30:15;;;;;;;2.50;2.30;;;;;;;22.74;60.68;98119.69;4980703;28;20207;-30
2023/10/08 02:32:45;;;;;;;2.03;1.83;;;;;;;22.74;60.59;98118.81;4976304;28;20219;-26
2023/10/08 02:35:12;;;;;;;1.97;1.87;;;;;;;22.74;60.65;98121.41;4983755;28;20314;-27
2023/10/08 02:37:40;;;;;;;2.33;2.13;;;;;;;22.74;60.66;98119.69;4977376;28;20199;-27
2023/10/08 02:40:16;;;;;;;2.30;2.10;;;;;;;22.73;60.65;98119.63;4976718;28;20204;-26
2023/10/08 02:42:43;;;;;;;2.13;1.93;;;;;;;22.70;60.67;98109.28;4977677;28;20219;-27
2023/10/08 02:45:13;;;;;;;2.03;1.93;;;;;;;22.73;60.67;98123.06;4976886;28;20234;-26
2023/10/08 02:47:45;;;;;;;2.20;2.00;;;;;;;22.73;60.68;98125.63;4977278;28;20225;-26
2023/10/08 02:50:12;;;;;;;1.93;1.83;;;;;;;22.72;60.70;98123.91;4958553;28;20203;-28
2023/10/08 02:52:39;;;;;;;2.03;1.90;;;;;;;22.72;60.74;98113.66;4974985;28;20226;-26
2023/10/08 02:55:18;;;;;;;1.90;1.80;;;;;;;22.73;60.79;98123.06;4981282;28;20231;-28
2023/10/08 02:57:44;;;;;;;2.07;1.87;;;;;;;22.73;60.84;98122.19;4978453;28;20200;-26
2023/10/08 03:00:13;;;;;;;1.93;1.83;;;;;;;22.73;60.81;98125.63;4981230;28;20662;-27
2023/10/08 03:02:40;;;;;;;2.13;1.90;;;;;;;22.74;60.67;98123.94;4974704;28;20250;-29
2023/10/08 03:05:08;;;;;;;1.80;1.70;;;;;;;22.72;60.88;98129.03;4978737;28;20227;-27
2023/10/08 03:07:35;;;;;;;2.10;1.90;;;;;;;22.74;60.86;98126.50;4976638;28;20204;-27
2023/10/08 03:10:17;;;;;;;2.43;2.03;;;;;;;22.72;60.79;98118.78;4979685;28;20270;-26
2023/10/08 03:12:47;;;;;;;2.03;1.83;;;;;;;22.73;60.80;98119.63;4974896;28;20270;-26
2023/10/08 03:15:27;;;;;;;2.07;1.90;;;;;;;22.73;60.73;98110.25;4978979;28;20721;-26
2023/10/08 03:17:57;;;;;;;2.17;1.97;;;;;;;22.72;60.74;98116.22;4980786;28;20318;-26
2023/10/08 03:20:38;;;;;;;1.73;1.63;;;;;;;22.73;60.77;98114.50;4975549;28;20254;-26
2023/10/08 03:23:25;;;;;;;1.80;1.70;;;;;;;22.73;60.77;98106.81;4982796;28;20666;-26
2023/10/08 03:26:09;;;;;;;1.80;1.70;;;;;;;22.73;60.72;98111.94;4970559;28;20713;-26
2023/10/08 03:28:35;;;;;;;2.00;1.90;;;;;;;22.73;61.02;98110.25;4979832;28;20669;-27
2023/10/08 03:31:03;;;;;;;2.13;2.00;;;;;;;22.72;60.87;98107.66;4976215;28;20270;-26
2023/10/08 03:33:34;;;;;;;2.10;1.80;;;;;;;22.73;60.86;98110.25;4980479;28;20257;-26
2023/10/08 03:36:14;;;;;;;2.00;1.90;;;;;;;22.70;60.87;98099.91;4975634;28;20259;-27
2023/10/08 03:38:52;;;;;;;2.20;2.00;;;;;;;22.72;60.83;98100.84;4979801;28;20214;-26
2023/10/08 03:41:27;;;;;;;2.07;1.87;;;;;;;22.61;60.91;98091.03;4974566;28;20206;-26
2023/10/08 03:44:12;;;;;;;1.93;1.77;;;;;;;22.72;60.78;98123.91;4969198;28;20255;-26
2023/10/08 03:46:42;;;;;;;2.07;1.90;;;;;;;22.73;60.92;98119.63;4980298;28;20622;-26
2023/10/08 03:51:48;;;;;;;2.20;1.80;;;;;;;22.73;60.83;98122.19;4974446;28;20223;-26
2023/10/08 03:54:18;;;;;;;1.90;1.70;;;;;;;22.72;60.89;98125.59;4976584;28;20212;-28
2023/10/08 03:56:45;;;;;;;2.07;1.87;;;;;;;22.71;60.83;98122.13;4974308;28;20223;-29
2023/10/08 03:59:13;;;;;;;2.03;1.83;;;;;;;22.72;60.77;98131.59;4974491;28;20286;-27
2023/10/08 04:01:43;;;;;;;1.97;1.77;;;;;;;22.72;60.77;98144.41;4975168;28;20200;-26
2023/10/08 04:04:13;;;;;;;2.00;1.90;;;;;;;22.72;60.77;98140.97;4980565;28;20230;-31
2023/10/08 04:06:54;;;;;;;1.93;1.73;;;;;;;22.72;60.89;98140.97;4974670;28;20212;-26
2023/10/08 04:09:24;;;;;;;2.10;1.90;;;;;;;22.72;60.78;98136.72;4980899;28;20575;-28
2023/10/08 04:11:51;;;;;;;1.87;1.77;;;;;;;22.73;60.71;98137.56;4975109;28;20733;-26
2023/10/08 04:14:24;;;;;;;2.00;1.80;;;;;;;22.73;60.93;98132.44;4977156;28;20206;-28
2023/10/08 04:16:51;;;;;;;2.00;1.90;;;;;;;22.73;60.84;98137.56;4981539;28;20207;-27
2023/10/08 04:19:20;;;;;;;2.30;2.03;;;;;;;22.73;60.81;98142.69;4976157;28;20227;-26
2023/10/08 04:21:53;;;;;;;2.20;2.00;;;;;;;22.73;60.92;98142.69;4981372;28;20195;-26
2023/10/08 04:24:36;;;;;;;2.30;2.10;;;;;;;22.73;60.96;98145.25;4973970;28;20259;-26
2023/10/08 04:27:09;;;;;;;2.00;1.80;;;;;;;22.72;60.85;98144.41;4973778;28;20251;-26
2023/10/08 04:29:38;;;;;;;2.40;2.20;;;;;;;22.72;60.87;98136.72;4973424;28;20285;-27
2023/10/08 04:32:11;;;;;;;2.10;1.90;;;;;;;22.73;60.81;98142.69;4978344;28;20270;-29
2023/10/08 04:34:44;;;;;;;2.17;1.97;;;;;;;22.72;60.96;98153.78;4971037;28;20590;-30
2023/10/08 04:37:12;;;;;;;2.00;1.70;;;;;;;22.71;60.78;98150.31;4967880;28;20206;-26
2023/10/08 04:39:46;;;;;;;2.00;1.80;;;;;;;22.71;60.87;98155.44;4973033;28;20678;-28
2023/10/08 04:42:14;;;;;;;1.80;1.70;;;;;;;22.72;60.90;98169.16;4976193;28;20261;-26
2023/10/08 04:44:40;;;;;;;1.73;1.63;;;;;;;22.71;61.15;98170.81;4973052;28;20228;-27
2023/10/08 04:47:31;;;;;;;2.00;1.90;;;;;;;22.71;61.21;98160.56;4978946;28;20558;-26
2023/10/08 04:49:56;;;;;;;2.27;2.07;;;;;;;22.72;60.98;98161.47;4972563;28;20207;-26
2023/10/08 04:52:25;;;;;;;2.20;1.80;;;;;;;22.72;60.90;98161.47;4972102;28;20215;-26
2023/10/08 04:54:51;;;;;;;1.90;1.80;;;;;;;22.72;61.02;98164.91;4973355;28;20274;-26
2023/10/08 04:57:22;;;;;;;2.23;1.80;;;;;;;22.72;60.95;98161.47;4970356;28;20200;-26
2023/10/08 04:59:53;;;;;;;1.83;1.73;;;;;;;22.72;60.92;98166.59;4975443;28;20696;-26
2023/10/08 05:02:26;;;;;;;1.83;1.73;;;;;;;22.71;60.95;98168.25;4970668;28;20652;-27
2023/10/08 05:05:07;;;;;;;2.37;1.87;;;;;;;22.72;60.95;98170.03;4966144;28;20234;-28
2023/10/08 05:08:00;;;;;;;2.00;1.87;;;;;;;22.73;60.90;98176.00;4969793;28;20195;-27
2023/10/08 05:15:41;;;;;;;2.20;2.00;;;;;;;22.72;60.83;98187.97;4971071;28;20567;-26
2023/10/08 05:28:35;;;;;;;2.00;1.73;;;;;;;22.73;60.88;98171.75;4974166;28;20560;-27
2023/10/08 05:34:14;;;;;;;2.10;1.90;;;;;;;22.72;61.00;98176.84;4976100;28;20231;-27
2023/10/08 05:37:10;;;;;;;2.20;2.00;;;;;;;22.73;61.06;98176.00;4971586;28;20207;-26
2023/10/08 05:39:54;;;;;;;1.93;1.80;;;;;;;22.72;60.95;98167.47;4972058;28;20199;-26
2023/10/08 05:42:31;;;;;;;2.20;2.00;;;;;;;22.72;60.95;98161.47;4979730;28;20575;-35
2023/10/08 05:52:50;;;;;;;3.43;2.37;;;;;;;22.71;60.71;98186.19;4970734;28;20628;-28
2023/10/08 05:55:25;;;;;;;7.20;3.77;;;;;;;22.70;58.33;98196.41;4972115;28;20361;-27
2023/10/08 05:58:24;;;;;;;4.47;3.97;;;;;;;22.69;58.17;98182.72;4975132;28;20473;-26
2023/10/08 06:03:36;;;;;;;8.30;4.73;;;;;;;22.70;58.22;98186.16;4976162;28;20569;-26
2023/10/08 06:08:49;;;;;;;11.47;4.50;;;;;;;22.71;58.57;98172.53;4961925;28;20694;-30
2023/10/08 06:11:30;;;;;;;9.07;4.43;;;;;;;22.70;58.76;98169.09;4969605;28;20203;-26
2023/10/08 06:14:00;;;;;;;10.20;4.70;;;;;;;22.70;58.27;98160.53;4971879;28;20257;-26
2023/10/08 06:16:41;;;;;;;9.33;4.70;;;;;;;22.70;57.71;98157.97;4973966;28;20215;-26
2023/10/08 06:19:09;;;;;;;9.17;4.90;;;;;;;22.71;58.01;98160.56;4972267;28;20210;-26
2023/10/08 06:21:42;;;;;;;9.97;5.10;;;;;;;22.71;59.64;98164.84;4972534;28;20210;-28
2023/10/08 06:24:09;;;;;;;7.90;4.27;;;;;;;22.72;63.27;98169.16;4968924;28;20207;-28
2023/10/08 06:26:42;;;;;;;9.80;4.90;;;;;;;22.73;66.53;98176.88;4977646;28;20200;-26
2023/10/08 06:29:18;;;;;;;9.70;5.03;;;;;;;22.73;65.03;98173.44;4978928;28;20210;-30
2023/10/08 06:31:51;;;;;;;7.90;5.30;;;;;;;22.73;63.17;98183.69;4975365;28;20204;-26
2023/10/08 06:34:21;;;;;;;9.83;5.00;;;;;;;22.73;62.03;98191.38;4971820;28;20206;-26
2023/10/08 06:36:53;;;;;;;10.03;5.07;;;;;;;22.73;61.44;98188.81;4970942;28;20196;-26
2023/10/08 06:39:33;;;;;;;10.10;4.93;;;;;;;22.71;60.67;98185.34;4971856;28;20195;-26
2023/10/08 06:42:00;;;;;;;14.33;5.50;;;;;;;22.72;59.46;98180.28;4968633;28;20211;-27
2023/10/08 06:44:27;;;;;;;11.83;5.70;;;;;;;22.73;59.25;98184.56;4976344;28;20284;-26
2023/10/08 06:46:56;;;;;;;9.13;5.93;;;;;;;22.72;59.15;98193.09;4974109;28;20262;-26
2023/10/08 06:49:25;;;;;;;13.87;5.40;;;;;;;22.73;58.76;98184.56;4954997;28;20202;-27
2023/10/08 06:51:53;;;;;;;11.60;5.87;;;;;;;22.74;58.88;98196.56;4971905;28;20212;-27
2023/10/08 06:54:22;;;;;;;10.00;5.77;;;;;;;22.73;58.37;98189.69;4972566;28;20200;-26
2023/10/08 06:56:52;;;;;;;12.47;5.30;;;;;;;22.73;57.79;98184.56;4971767;28;20667;-26
2023/10/08 06:59:22;;;;;;;10.93;5.23;;;;;;;22.72;57.73;98187.09;4978273;28;20199;-26
2023/10/08 07:01:51;;;;;;;7.47;5.13;;;;;;;22.75;57.78;98179.50;4977138;28;20200;-26
2023/10/08 07:04:21;;;;;;;12.07;5.07;;;;;;;22.74;57.87;98185.47;4975430;28;20618;-27
2023/10/08 07:06:50;;;;;;;11.20;5.27;;;;;;;22.75;57.30;98187.19;4977440;28;20205;-26
2023/10/08 07:09:29;;;;;;;13.50;4.87;;;;;;;22.74;57.23;98188.03;4983978;28;20666;-26
2023/10/08 07:11:56;;;;;;;11.00;4.90;;;;;;;22.74;57.39;98190.59;4976685;28;20223;-26
2023/10/08 07:14:27;;;;;;;9.33;5.40;;;;;;;22.74;57.37;98188.03;4975536;28;20254;-27
2023/10/08 07:16:58;;;;;;;9.30;5.20;;;;;;;22.75;57.43;98182.06;4975481;28;20671;-26
2023/10/08 07:19:37;;;;;;;11.13;5.30;;;;;;;22.74;57.65;98183.75;4978999;28;20288;-26
2023/10/08 07:22:17;;;;;;;9.10;4.67;;;;;;;22.74;57.08;98188.88;4975289;28;20639;-26
2023/10/08 07:24:51;;;;;;;14.07;5.37;;;;;;;22.74;56.27;98193.16;4979883;28;20261;-28
2023/10/08 07:27:24;;;;;;;8.87;4.63;;;;;;;22.75;55.70;98215.38;4981656;28;20204;-26
2023/10/08 07:29:55;;;;;;;7.73;5.20;;;;;;;22.75;55.08;98223.94;4962063;28;20211;-27
2023/10/08 07:32:22;;;;;;;8.50;5.37;;;;;;;22.74;54.67;98224.75;4974844;28;20223;-29
2023/10/08 07:34:57;;;;;;;9.90;5.70;;;;;;;22.73;54.44;98225.56;4978222;28;20227;-26
2023/10/08 07:37:26;;;;;;;9.53;5.27;;;;;;;22.69;54.40;98230.53;4979464;28;20725;-26
2023/10/08 07:39:54;;;;;;;9.97;6.00;;;;;;;22.73;54.41;98230.69;4973238;28;20287;-26
2023/10/08 07:42:21;;;;;;;11.03;5.90;;;;;;;22.73;54.50;98237.50;4980399;28;20195;-26
2023/10/08 07:44:50;;;;;;;6.43;5.13;;;;;;;22.71;54.72;98247.69;4973261;28;20310;-34
2023/10/08 07:47:18;;;;;;;10.63;5.73;;;;;;;22.72;54.92;98230.66;4979505;28;20207;-26
2023/10/08 07:49:45;;;;;;;7.67;5.03;;;;;;;22.71;55.23;98239.16;4974667;28;20203;-26
2023/10/08 07:52:15;;;;;;;7.80;5.33;;;;;;;22.68;55.01;98221.97;4980402;28;20219;-28
2023/10/08 07:54:43;;;;;;;11.57;5.13;;;;;;;22.68;54.51;98218.56;4976550;28;20227;-31
2023/10/08 07:57:11;;;;;;;11.50;5.10;;;;;;;22.68;54.34;98209.16;4977528;28;20290;-26
2023/10/08 07:59:41;;;;;;;11.43;5.60;;;;;;;22.67;54.39;98211.66;4974619;28;20204;-26
2023/10/08 08:02:11;;;;;;;7.40;5.10;;;;;;;22.62;54.08;98223.47;4979402;28;20219;-26
2023/10/08 08:04:39;;;;;;;9.13;5.30;;;;;;;22.65;54.22;98226.97;4979605;28;20407;-26
2023/10/08 08:07:07;;;;;;;8.93;4.80;;;;;;;22.64;53.92;98216.69;4974323;28;20207;-31
2023/10/08 08:09:37;;;;;;;12.37;5.57;;;;;;;22.62;53.74;98221.75;4979164;28;20199;-26
2023/10/08 08:12:11;;;;;;;11.73;5.60;;;;;;;22.63;53.67;98220.06;4971325;28;20526;-26
2023/10/08 08:14:41;;;;;;;9.20;6.00;;;;;;;22.61;53.71;98214.88;4976922;28;20277;-26
2023/10/08 08:17:14;;;;;;;13.03;5.53;;;;;;;22.61;53.62;98219.13;4973182;28;20235;-26
2023/10/08 08:19:47;;;;;;;10.43;5.63;;;;;;;22.61;54.56;98224.25;4974136;28;20262;-26
2023/10/08 08:22:30;;;;;;;10.57;5.93;;;;;;;22.60;54.71;98227.66;4972703;28;20206;-28
2023/10/08 08:25:05;;;;;;;7.03;4.87;;;;;;;22.61;54.97;98237.06;4975806;28;20223;-28
2023/10/08 08:27:32;;;;;;;6.20;5.23;;;;;;;22.61;54.66;98239.63;4973528;28;20202;-28
2023/10/08 08:30:15;;;;;;;11.67;5.50;;;;;;;22.61;54.81;98245.63;4981080;28;20206;-27
2023/10/08 08:32:47;;;;;;;8.87;4.97;;;;;;;22.61;54.73;98239.63;4973921;28;20227;-27
2023/10/08 08:35:19;;;;;;;9.23;5.47;;;;;;;22.61;54.50;98248.19;4973311;28;20230;-26
2023/10/08 08:37:47;;;;;;;7.17;5.23;;;;;;;22.61;54.66;98243.06;4973737;28;20286;-31
2023/10/08 08:40:19;;;;;;;9.47;5.67;;;;;;;22.62;55.23;98251.66;4978496;28;20230;-26
2023/10/08 08:42:48;;;;;;;11.03;6.07;;;;;;;22.62;54.71;98267.00;4973870;28;20227;-27
2023/10/08 08:45:26;;;;;;;6.83;5.23;;;;;;;22.62;54.76;98273.00;4972636;28;20224;-27
2023/10/08 08:47:53;;;;;;;8.17;5.03;;;;;;;22.61;54.79;98280.63;4982860;28;20282;-27
2023/10/08 08:50:21;;;;;;;7.17;4.90;;;;;;;22.55;54.72;98265.91;4973571;28;20207;-26
2023/10/08 08:52:48;;;;;;;10.10;5.03;;;;;;;22.62;54.71;98277.25;4956569;28;20278;-26
2023/10/08 08:55:14;;;;;;;8.30;4.80;;;;;;;22.63;54.80;98277.31;4976738;28;20235;-28
2023/10/08 08:57:50;;;;;;;8.33;5.07;;;;;;;22.64;54.95;98285.84;4973977;28;20368;-28
2023/10/08 09:00:18;;;;;;;8.33;5.43;;;;;;;22.63;55.23;98292.69;4972139;28;20195;-36
2023/10/08 09:02:47;;;;;;;7.77;4.90;;;;;;;22.64;55.55;98303.78;4978666;28;20398;-26
2023/10/08 09:05:25;;;;;;;7.20;5.30;;;;;;;22.63;55.58;98305.50;4972597;28;20309;-27
2023/10/08 09:07:56;;;;;;;9.13;4.90;;;;;;;22.63;55.87;98308.06;4979404;28;20238;-26
2023/10/08 09:10:29;;;;;;;8.17;4.90;;;;;;;22.64;55.81;98273.03;4974637;28;20202;-29
2023/10/08 09:12:59;;;;;;;7.30;4.73;;;;;;;22.63;55.98;98281.56;4981305;28;20215;-26
2023/10/08 09:15:26;;;;;;;7.53;5.13;;;;;;;22.56;56.26;98275.31;4973254;28;20234;-26
2023/10/08 09:17:54;;;;;;;10.93;4.90;;;;;;;22.65;56.14;98282.50;4975855;28;20666;-26
2023/10/08 09:20:22;;;;;;;6.70;4.90;;;;;;;22.65;56.26;98287.63;4972901;28;20702;-34
2023/10/08 09:23:25;;;;;;;7.57;5.07;;;;;;;22.65;56.39;98292.75;4967819;28;20207;-29
2023/10/08 09:26:01;;;;;;;8.30;4.97;;;;;;;22.66;56.48;98297.03;4912336;29;20221;-28
2023/10/08 09:28:28;;;;;;;6.97;4.67;;;;;;;22.65;56.42;98288.47;4932275;28;20199;-31
2023/10/08 09:30:58;;;;;;;8.00;5.00;;;;;;;22.64;56.55;98291.88;4978405;28;20214;-27
2023/10/08 09:33:25;;;;;;;10.83;5.13;;;;;;;22.69;56.64;98297.16;4955864;28;20228;-26
2023/10/08 09:35:55;;;;;;;8.53;4.43;;;;;;;22.69;56.83;98294.59;4972511;28;20219;-26
2023/10/08 09:38:23;;;;;;;5.33;4.40;;;;;;;22.69;57.07;98303.16;4959993;28;20207;-26
2023/10/08 09:40:52;;;;;;;7.53;4.43;;;;;;;22.70;56.91;98307.47;4975704;28;20204;-26
2023/10/08 09:43:19;;;;;;;7.07;4.87;;;;;;;22.71;56.97;98295.53;4955602;28;20195;-26
2023/10/08 09:45:47;;;;;;;7.40;4.77;;;;;;;22.69;56.91;98294.59;4957872;28;20227;-26
2023/10/08 09:48:16;;;;;;;8.67;5.23;;;;;;;22.70;56.97;98292.09;4977768;28;20215;-26
2023/10/08 09:50:44;;;;;;;5.67;4.20;;;;;;;22.69;57.02;98294.59;4973026;28;20228;-26
2023/10/08 09:53:19;;;;;;;6.37;4.30;;;;;;;22.70;57.23;98294.66;4972679;28;20573;-26
2023/10/08 09:55:54;;;;;;;6.70;4.67;;;;;;;22.71;57.27;98291.25;4972328;28;20680;-26
2023/10/08 09:58:25;;;;;;;7.13;4.63;;;;;;;22.71;57.46;98288.69;4969974;28;20209;-26
2023/10/08 10:00:53;;;;;;;7.53;4.80;;;;;;;22.71;57.62;98281.00;4954612;28;20207;-28
2023/10/08 10:03:25;;;;;;;5.43;4.30;;;;;;;22.68;57.49;98277.50;4956162;28;20206;-26
2023/10/08 10:05:58;;;;;;;7.27;4.60;;;;;;;22.71;57.58;98270.75;4967670;28;20314;-26
2023/10/08 10:08:27;;;;;;;6.83;4.47;;;;;;;22.72;57.56;98266.53;4972900;28;20307;-26
2023/10/08 10:11:03;;;;;;;5.47;4.03;;;;;;;22.72;57.47;98256.28;4976886;28;20736;-26
2023/10/08 10:13:38;;;;;;;7.47;4.47;;;;;;;22.73;57.38;98255.44;4979114;28;20226;-26
2023/10/08 10:16:09;;;;;;;5.43;3.93;;;;;;;22.73;57.55;98266.56;4976475;28;20234;-27
2023/10/08 10:18:36;;;;;;;7.77;4.80;;;;;;;22.73;57.58;98258.88;4975938;28;20294;-28
2023/10/08 10:21:12;;;;;;;7.30;3.87;;;;;;;22.74;57.58;98258.06;4974162;28;20208;-26
2023/10/08 10:23:40;;;;;;;6.13;4.70;;;;;;;22.74;57.78;98250.38;4958771;28;20199;-30
2023/10/08 10:26:40;;;;;;;11.23;4.40;;;;;;;22.75;57.99;98249.56;4969354;28;20353;-34
2023/10/08 10:29:10;;;;;;;6.57;4.13;;;;;;;22.75;57.84;98230.75;4969619;28;20266;-26
2023/10/08 10:31:38;;;;;;;10.03;4.83;;;;;;;22.76;58.03;98240.19;4971803;28;23069;-26
2023/10/08 10:34:11;;;;;;;7.43;4.03;;;;;;;22.76;58.05;98237.63;4972027;28;20621;-27
2023/10/08 10:36:39;;;;;;;8.47;4.43;;;;;;;22.72;58.09;98248.59;4973828;28;20289;-33
2023/10/08 10:39:26;;;;;;;6.90;4.13;;;;;;;22.76;58.24;98263.25;4975449;28;20285;-28
2023/10/08 10:41:57;;;;;;;10.37;4.10;;;;;;;22.74;58.33;98272.59;4965408;28;20215;-26
2023/10/08 10:44:24;;;;;;;15.50;4.27;;;;;;;22.76;58.43;98284.63;4976405;28;20259;-35
2023/10/08 10:46:52;;;;;;;12.67;4.30;;;;;;;22.76;58.44;98284.63;4977530;28;20207;-26
2023/10/08 10:49:21;;;;;;;10.10;4.33;;;;;;;22.77;58.66;98286.38;4975404;28;20580;-28
2023/10/08 10:51:57;;;;;;;12.03;4.27;;;;;;;22.77;58.54;98298.31;4978976;28;20306;-30
2023/10/08 10:54:24;;;;;;;6.17;4.17;;;;;;;22.76;58.57;98288.88;4976008;28;20896;-26
2023/10/08 10:57:03;;;;;;;6.33;4.33;;;;;;;22.74;58.42;98291.38;4975686;28;20302;-30
2023/10/08 10:59:37;;;;;;;5.67;4.27;;;;;;;22.77;58.48;98298.31;4977239;28;20258;-27
2023/10/08 11:02:20;;;;;;;9.03;4.00;;;;;;;22.75;58.51;98300.84;4957042;28;20211;-27
2023/10/08 11:04:48;;;;;;;4.97;3.43;;;;;;;22.75;58.71;98308.53;4973275;28;20676;-27
2023/10/08 11:07:17;;;;;;;7.20;4.03;;;;;;;22.73;58.62;98307.59;4973959;28;20210;-26
2023/10/08 11:09:44;;;;;;;7.73;3.70;;;;;;;22.76;58.78;98320.50;4960063;28;20203;-28
2023/10/08 11:12:13;;;;;;;6.47;4.13;;;;;;;22.75;58.83;98317.88;4979790;28;20200;-39
2023/10/08 11:14:43;;;;;;;8.07;3.87;;;;;;;22.76;58.79;98306.81;4981366;28;20687;-26
2023/10/08 11:17:17;;;;;;;6.20;3.80;;;;;;;22.75;58.75;98305.06;4979588;28;20223;-26
2023/10/08 11:19:46;;;;;;;6.57;3.70;;;;;;;22.76;58.77;98307.69;4960007;28;20673;-26
2023/10/08 11:22:16;;;;;;;5.47;3.73;;;;;;;22.75;59.14;98295.72;4975362;28;20204;-28
2023/10/08 11:24:47;;;;;;;7.67;4.00;;;;;;;22.77;58.99;98298.31;4974440;28;20746;-27
2023/10/08 11:27:28;;;;;;;6.43;3.80;;;;;;;22.77;59.08;98290.63;4957932;28;20200;-26
2023/10/08 11:30:00;;;;;;;5.53;3.80;;;;;;;22.76;59.25;98294.88;4980713;28;20203;-29
2023/10/08 11:32:27;;;;;;;6.47;3.90;;;;;;;22.75;59.11;98287.13;4976047;28;20204;-26
2023/10/08 11:34:59;;;;;;;7.40;3.93;;;;;;;22.72;58.90;98287.91;4977456;28;20226;-27
2023/10/08 11:37:30;;;;;;;8.17;3.80;;;;;;;22.73;58.95;98281.94;4977675;28;20250;-26
2023/10/08 11:39:59;;;;;;;5.30;3.57;;;;;;;22.74;59.09;98278.56;4982160;28;20204;-26
2023/10/08 11:47:48;;;;;;;5.53;3.80;;;;;;;22.72;59.15;98258.84;4970009;28;20199;-26
2023/10/08 11:50:21;;;;;;;5.17;3.67;;;;;;;22.73;59.15;98266.56;4979346;28;20369;-26
2023/10/08 11:52:49;;;;;;;6.80;4.33;;;;;;;22.73;59.10;98271.69;4977364;28;20211;-26
2023/10/08 11:55:21;;;;;;;4.97;3.60;;;;;;;22.73;59.18;98255.44;4974048;28;20231;-26
2023/10/08 11:57:48;;;;;;;4.80;3.40;;;;;;;22.73;59.32;98258.00;4976764;28;20226;-26
2023/10/08 12:00:19;;;;;;;5.47;3.67;;;;;;;22.74;59.47;98267.47;4977926;28;20246;-26
2023/10/08 12:02:49;;;;;;;5.53;3.80;;;;;;;22.73;59.52;98258.88;4975750;28;20678;-26
2023/10/08 12:05:19;;;;;;;5.83;3.50;;;;;;;22.72;59.51;98251.16;4974238;28;20223;-26
2023/10/08 12:07:47;;;;;;;6.47;3.90;;;;;;;22.74;59.37;98254.66;4974840;28;20204;-26
2023/10/08 12:10:16;;;;;;;5.20;3.57;;;;;;;22.67;59.46;98242.41;4974189;28;20214;-27
2023/10/08 12:12:45;;;;;;;5.27;3.50;;;;;;;22.74;59.30;98246.97;4957242;28;20203;-28
2023/10/08 12:15:19;;;;;;;3.97;3.30;;;;;;;22.75;59.33;98251.25;4975312;28;20224;-27
2023/10/08 12:20:39;;;;;;;5.73;3.87;;;;;;;22.74;59.38;98260.63;4975875;28;20207;-26
2023/10/08 12:23:06;;;;;;;5.10;3.40;;;;;;;22.75;59.36;98251.25;4965567;28;20334;-28
2023/10/08 12:25:32;;;;;;;4.43;3.30;;;;;;;22.75;59.52;98241.88;4973557;28;20223;-28
2023/10/08 12:28:04;;;;;;;3.60;3.00;;;;;;;22.75;59.69;98251.25;4976240;28;20261;-26
2023/10/08 12:30:31;;;;;;;4.10;3.40;;;;;;;22.75;59.61;98258.94;4975099;28;20199;-26
2023/10/08 12:32:59;;;;;;;4.53;3.23;;;;;;;22.74;59.56;98275.16;4973790;28;20662;-30
2023/10/08 12:35:29;;;;;;;6.77;3.40;;;;;;;22.76;59.49;98297.44;4972721;28;20255;-35
2023/10/08 12:37:56;;;;;;;3.77;3.30;;;;;;;22.76;59.68;98301.69;4973533;28;20306;-28
2023/10/08 12:40:23;;;;;;;6.53;3.70;;;;;;;22.76;59.70;98304.25;4973609;28;20242;-26